sensor_id;sensor_type;location;lat;lon;timestamp;P1;durP1;ratioP1;P2;durP2;ratioP2
84007;SDS011;74070;50.948;6.954;2024-02-16T00:02:01;8.30;;;2.93;;
84007;SDS011;74070;50.948;6.954;2024-02-16T00:04:27;4.10;;;2.53;;
84007;SDS011;74070;50.948;6.954;2024-02-16T00:06:54;5.20;;;2.60;;
84007;SDS011;74070;50.948;6.954;2024-02-16T00:09:20;3.60;;;2.00;;
84007;SDS011;74070;50.948;6.954;2024-02-16T00:11:47;7.13;;;2.80;;
84007;SDS011;74070;50.948;6.954;2024-02-16T00:14:14;4.30;;;2.27;;
84007;SDS011;74070;50.948;6.954;2024-02-16T00:16:40;3.40;;;2.00;;
84007;SDS011;74070;50.948;6.954;2024-02-16T00:19:07;3.40;;;2.17;;
84007;SDS011;74070;50.948;6.954;2024-02-16T00:21:33;3.67;;;2.20;;
84007;SDS011;74070;50.948;6.954;2024-02-16T00:24:00;4.47;;;1.93;;
84007;SDS011;74070;50.948;6.954;2024-02-16T00:26:27;3.73;;;1.90;;
84007;SDS011;74070;50.948;6.954;2024-02-16T00:28:53;4.93;;;2.27;;
84007;SDS011;74070;50.948;6.954;2024-02-16T00:31:20;2.73;;;1.80;;
84007;SDS011;74070;50.948;6.954;2024-02-16T00:33:46;6.60;;;2.23;;
84007;SDS011;74070;50.948;6.954;2024-02-16T00:36:13;5.53;;;2.50;;
84007;SDS011;74070;50.948;6.954;2024-02-16T00:38:40;3.00;;;2.13;;
84007;SDS011;74070;50.948;6.954;2024-02-16T00:41:07;3.80;;;2.10;;
84007;SDS011;74070;50.948;6.954;2024-02-16T00:43:33;2.57;;;1.60;;
84007;SDS011;74070;50.948;6.954;2024-02-16T00:46:01;7.53;;;2.00;;
84007;SDS011;74070;50.948;6.954;2024-02-16T00:48:28;4.27;;;1.97;;
84007;SDS011;74070;50.948;6.954;2024-02-16T00:50:55;4.30;;;2.30;;
84007;SDS011;74070;50.948;6.954;2024-02-16T00:53:21;4.27;;;1.83;;
84007;SDS011;74070;50.948;6.954;2024-02-16T00:55:48;5.33;;;2.47;;
84007;SDS011;74070;50.948;6.954;2024-02-16T00:58:15;5.80;;;2.17;;
84007;SDS011;74070;50.948;6.954;2024-02-16T01:00:41;6.83;;;1.83;;
84007;SDS011;74070;50.948;6.954;2024-02-16T01:03:08;3.77;;;1.67;;
84007;SDS011;74070;50.948;6.954;2024-02-16T01:05:34;4.50;;;2.27;;
84007;SDS011;74070;50.948;6.954;2024-02-16T01:08:01;5.40;;;2.60;;
84007;SDS011;74070;50.948;6.954;2024-02-16T01:10:28;4.00;;;2.10;;
84007;SDS011;74070;50.948;6.954;2024-02-16T01:12:56;3.10;;;2.13;;
84007;SDS011;74070;50.948;6.954;2024-02-16T01:15:23;5.27;;;1.93;;
84007;SDS011;74070;50.948;6.954;2024-02-16T01:17:50;4.10;;;2.10;;
84007;SDS011;74070;50.948;6.954;2024-02-16T01:20:16;6.07;;;2.00;;
84007;SDS011;74070;50.948;6.954;2024-02-16T01:22:43;7.73;;;2.23;;
84007;SDS011;74070;50.948;6.954;2024-02-16T01:25:09;4.33;;;1.83;;
84007;SDS011;74070;50.948;6.954;2024-02-16T01:27:36;3.10;;;1.70;;
84007;SDS011;74070;50.948;6.954;2024-02-16T01:30:03;4.90;;;2.03;;
84007;SDS011;74070;50.948;6.954;2024-02-16T01:32:30;4.27;;;1.80;;
84007;SDS011;74070;50.948;6.954;2024-02-16T01:34:57;4.63;;;1.80;;
84007;SDS011;74070;50.948;6.954;2024-02-16T01:37:23;3.63;;;1.70;;
84007;SDS011;74070;50.948;6.954;2024-02-16T01:39:50;5.13;;;1.93;;
84007;SDS011;74070;50.948;6.954;2024-02-16T01:42:16;5.23;;;1.87;;
84007;SDS011;74070;50.948;6.954;2024-02-16T01:44:44;4.23;;;1.63;;
84007;SDS011;74070;50.948;6.954;2024-02-16T01:47:11;4.83;;;1.80;;
84007;SDS011;74070;50.948;6.954;2024-02-16T01:49:38;3.53;;;1.60;;
84007;SDS011;74070;50.948;6.954;2024-02-16T01:52:04;4.93;;;2.00;;
84007;SDS011;74070;50.948;6.954;2024-02-16T01:54:31;1.97;;;1.60;;
84007;SDS011;74070;50.948;6.954;2024-02-16T01:56:58;2.90;;;1.97;;
84007;SDS011;74070;50.948;6.954;2024-02-16T01:59:24;3.77;;;2.07;;
84007;SDS011;74070;50.948;6.954;2024-02-16T02:01:51;5.17;;;1.90;;
84007;SDS011;74070;50.948;6.954;2024-02-16T02:04:18;5.23;;;1.80;;
84007;SDS011;74070;50.948;6.954;2024-02-16T02:06:46;5.20;;;2.07;;
84007;SDS011;74070;50.948;6.954;2024-02-16T02:09:12;6.00;;;1.70;;
84007;SDS011;74070;50.948;6.954;2024-02-16T02:11:39;4.30;;;1.77;;
84007;SDS011;74070;50.948;6.954;2024-02-16T02:14:06;3.77;;;1.70;;
84007;SDS011;74070;50.948;6.954;2024-02-16T02:16:32;3.47;;;1.90;;
84007;SDS011;74070;50.948;6.954;2024-02-16T02:18:59;4.30;;;2.00;;
84007;SDS011;74070;50.948;6.954;2024-02-16T02:21:25;4.27;;;1.80;;
84007;SDS011;74070;50.948;6.954;2024-02-16T02:23:52;5.33;;;2.27;;
84007;SDS011;74070;50.948;6.954;2024-02-16T02:26:19;2.13;;;1.60;;
84007;SDS011;74070;50.948;6.954;2024-02-16T02:28:45;3.80;;;2.03;;
84007;SDS011;74070;50.948;6.954;2024-02-16T02:31:12;2.53;;;1.50;;
84007;SDS011;74070;50.948;6.954;2024-02-16T02:33:39;3.83;;;2.00;;
84007;SDS011;74070;50.948;6.954;2024-02-16T02:36:06;5.50;;;1.90;;
84007;SDS011;74070;50.948;6.954;2024-02-16T02:38:33;6.07;;;2.40;;
84007;SDS011;74070;50.948;6.954;2024-02-16T02:41:00;3.47;;;2.00;;
84007;SDS011;74070;50.948;6.954;2024-02-16T02:43:26;3.20;;;1.93;;
84007;SDS011;74070;50.948;6.954;2024-02-16T02:45:53;4.03;;;1.87;;
84007;SDS011;74070;50.948;6.954;2024-02-16T02:48:19;5.13;;;2.13;;
84007;SDS011;74070;50.948;6.954;2024-02-16T02:50:46;4.70;;;2.23;;
84007;SDS011;74070;50.948;6.954;2024-02-16T02:53:13;4.23;;;1.73;;
84007;SDS011;74070;50.948;6.954;2024-02-16T02:55:39;12.50;;;2.30;;
84007;SDS011;74070;50.948;6.954;2024-02-16T02:58:06;3.10;;;1.83;;
84007;SDS011;74070;50.948;6.954;2024-02-16T03:00:32;7.20;;;1.90;;
84007;SDS011;74070;50.948;6.954;2024-02-16T03:02:59;5.33;;;2.80;;
84007;SDS011;74070;50.948;6.954;2024-02-16T03:05:26;4.00;;;1.80;;
84007;SDS011;74070;50.948;6.954;2024-02-16T03:07:53;3.53;;;1.80;;
84007;SDS011;74070;50.948;6.954;2024-02-16T03:10:19;4.80;;;2.03;;
84007;SDS011;74070;50.948;6.954;2024-02-16T03:12:47;3.37;;;2.10;;
84007;SDS011;74070;50.948;6.954;2024-02-16T03:15:14;5.07;;;2.17;;
84007;SDS011;74070;50.948;6.954;2024-02-16T03:17:41;3.23;;;2.00;;
84007;SDS011;74070;50.948;6.954;2024-02-16T03:20:09;3.93;;;1.90;;
84007;SDS011;74070;50.948;6.954;2024-02-16T03:22:36;7.90;;;2.27;;
84007;SDS011;74070;50.948;6.954;2024-02-16T03:25:03;5.60;;;2.23;;
84007;SDS011;74070;50.948;6.954;2024-02-16T03:27:30;4.37;;;2.40;;
84007;SDS011;74070;50.948;6.954;2024-02-16T03:29:56;5.03;;;1.97;;
84007;SDS011;74070;50.948;6.954;2024-02-16T03:32:23;3.97;;;2.33;;
84007;SDS011;74070;50.948;6.954;2024-02-16T03:34:49;4.97;;;2.17;;
84007;SDS011;74070;50.948;6.954;2024-02-16T03:37:16;4.20;;;2.23;;
84007;SDS011;74070;50.948;6.954;2024-02-16T03:39:43;5.17;;;2.07;;
84007;SDS011;74070;50.948;6.954;2024-02-16T03:42:10;6.23;;;2.00;;
84007;SDS011;74070;50.948;6.954;2024-02-16T03:44:37;8.00;;;2.40;;
84007;SDS011;74070;50.948;6.954;2024-02-16T03:47:05;3.40;;;1.80;;
84007;SDS011;74070;50.948;6.954;2024-02-16T03:49:32;5.63;;;2.57;;
84007;SDS011;74070;50.948;6.954;2024-02-16T03:51:59;4.43;;;2.20;;
84007;SDS011;74070;50.948;6.954;2024-02-16T03:54:26;4.10;;;2.10;;
84007;SDS011;74070;50.948;6.954;2024-02-16T03:56:53;4.37;;;2.00;;
84007;SDS011;74070;50.948;6.954;2024-02-16T03:59:19;3.70;;;2.00;;
84007;SDS011;74070;50.948;6.954;2024-02-16T04:01:46;2.60;;;1.90;;
84007;SDS011;74070;50.948;6.954;2024-02-16T04:04:12;2.57;;;1.70;;
84007;SDS011;74070;50.948;6.954;2024-02-16T04:06:39;4.90;;;2.13;;
84007;SDS011;74070;50.948;6.954;2024-02-16T04:09:06;3.63;;;1.93;;
84007;SDS011;74070;50.948;6.954;2024-02-16T04:11:33;3.27;;;2.07;;
84007;SDS011;74070;50.948;6.954;2024-02-16T04:14:00;3.27;;;1.90;;
84007;SDS011;74070;50.948;6.954;2024-02-16T04:16:27;3.77;;;2.03;;
84007;SDS011;74070;50.948;6.954;2024-02-16T04:18:54;5.57;;;1.97;;
84007;SDS011;74070;50.948;6.954;2024-02-16T04:21:22;3.63;;;2.17;;
84007;SDS011;74070;50.948;6.954;2024-02-16T04:23:49;5.00;;;2.03;;
84007;SDS011;74070;50.948;6.954;2024-02-16T04:26:16;3.53;;;2.47;;
84007;SDS011;74070;50.948;6.954;2024-02-16T04:28:42;5.07;;;2.20;;
84007;SDS011;74070;50.948;6.954;2024-02-16T04:31:09;5.00;;;2.17;;
84007;SDS011;74070;50.948;6.954;2024-02-16T04:33:35;5.97;;;2.17;;
84007;SDS011;74070;50.948;6.954;2024-02-16T04:36:04;4.20;;;2.33;;
84007;SDS011;74070;50.948;6.954;2024-02-16T04:38:29;6.67;;;2.90;;
84007;SDS011;74070;50.948;6.954;2024-02-16T04:40:56;4.37;;;2.20;;
84007;SDS011;74070;50.948;6.954;2024-02-16T04:43:22;6.07;;;2.40;;
84007;SDS011;74070;50.948;6.954;2024-02-16T04:45:49;5.53;;;2.50;;
84007;SDS011;74070;50.948;6.954;2024-02-16T04:48:16;6.67;;;2.50;;
84007;SDS011;74070;50.948;6.954;2024-02-16T04:50:43;5.47;;;2.83;;
84007;SDS011;74070;50.948;6.954;2024-02-16T04:53:10;3.90;;;2.40;;
84007;SDS011;74070;50.948;6.954;2024-02-16T04:55:37;5.13;;;2.47;;
84007;SDS011;74070;50.948;6.954;2024-02-16T04:58:03;6.23;;;2.60;;
84007;SDS011;74070;50.948;6.954;2024-02-16T05:00:31;7.07;;;3.13;;
84007;SDS011;74070;50.948;6.954;2024-02-16T05:02:57;4.00;;;2.23;;
84007;SDS011;74070;50.948;6.954;2024-02-16T05:05:24;4.43;;;2.47;;
84007;SDS011;74070;50.948;6.954;2024-02-16T05:07:50;5.43;;;2.70;;
84007;SDS011;74070;50.948;6.954;2024-02-16T05:10:17;13.07;;;3.43;;
84007;SDS011;74070;50.948;6.954;2024-02-16T05:12:45;6.53;;;2.90;;
84007;SDS011;74070;50.948;6.954;2024-02-16T05:15:12;8.63;;;4.00;;
84007;SDS011;74070;50.948;6.954;2024-02-16T05:17:39;5.33;;;2.60;;
84007;SDS011;74070;50.948;6.954;2024-02-16T05:20:09;5.30;;;2.50;;
84007;SDS011;74070;50.948;6.954;2024-02-16T05:22:35;8.60;;;2.93;;
84007;SDS011;74070;50.948;6.954;2024-02-16T05:25:02;4.80;;;2.60;;
84007;SDS011;74070;50.948;6.954;2024-02-16T05:27:29;5.40;;;3.17;;
84007;SDS011;74070;50.948;6.954;2024-02-16T05:29:56;4.00;;;2.30;;
84007;SDS011;74070;50.948;6.954;2024-02-16T05:32:23;4.57;;;2.50;;
84007;SDS011;74070;50.948;6.954;2024-02-16T05:34:49;4.40;;;2.67;;
84007;SDS011;74070;50.948;6.954;2024-02-16T05:37:16;9.43;;;4.03;;
84007;SDS011;74070;50.948;6.954;2024-02-16T05:39:42;4.17;;;2.10;;
84007;SDS011;74070;50.948;6.954;2024-02-16T05:42:09;5.73;;;2.43;;
84007;SDS011;74070;50.948;6.954;2024-02-16T05:44:36;3.80;;;2.33;;
84007;SDS011;74070;50.948;6.954;2024-02-16T05:47:02;4.97;;;2.30;;
84007;SDS011;74070;50.948;6.954;2024-02-16T05:49:29;4.23;;;2.47;;
84007;SDS011;74070;50.948;6.954;2024-02-16T05:51:56;5.23;;;2.37;;
84007;SDS011;74070;50.948;6.954;2024-02-16T05:54:27;4.73;;;2.60;;
84007;SDS011;74070;50.948;6.954;2024-02-16T05:56:53;7.60;;;2.90;;
84007;SDS011;74070;50.948;6.954;2024-02-16T05:59:20;5.43;;;2.30;;
84007;SDS011;74070;50.948;6.954;2024-02-16T06:01:47;4.40;;;2.10;;
84007;SDS011;74070;50.948;6.954;2024-02-16T06:04:14;5.20;;;2.70;;
84007;SDS011;74070;50.948;6.954;2024-02-16T06:06:41;4.67;;;2.17;;
84007;SDS011;74070;50.948;6.954;2024-02-16T06:09:08;5.87;;;2.80;;
84007;SDS011;74070;50.948;6.954;2024-02-16T06:11:37;5.67;;;2.60;;
84007;SDS011;74070;50.948;6.954;2024-02-16T06:14:03;7.17;;;2.60;;
84007;SDS011;74070;50.948;6.954;2024-02-16T06:16:30;4.77;;;2.40;;
84007;SDS011;74070;50.948;6.954;2024-02-16T06:18:56;4.23;;;2.60;;
84007;SDS011;74070;50.948;6.954;2024-02-16T06:21:23;5.57;;;3.07;;
84007;SDS011;74070;50.948;6.954;2024-02-16T06:23:49;5.90;;;2.73;;
84007;SDS011;74070;50.948;6.954;2024-02-16T06:26:16;5.60;;;2.80;;
84007;SDS011;74070;50.948;6.954;2024-02-16T06:28:43;6.97;;;2.70;;
84007;SDS011;74070;50.948;6.954;2024-02-16T06:31:09;5.50;;;2.93;;
84007;SDS011;74070;50.948;6.954;2024-02-16T06:33:36;5.97;;;3.17;;
84007;SDS011;74070;50.948;6.954;2024-02-16T06:36:03;5.20;;;2.63;;
84007;SDS011;74070;50.948;6.954;2024-02-16T06:38:30;8.17;;;3.20;;
84007;SDS011;74070;50.948;6.954;2024-02-16T06:40:57;10.47;;;2.93;;
84007;SDS011;74070;50.948;6.954;2024-02-16T06:43:27;5.77;;;3.03;;
84007;SDS011;74070;50.948;6.954;2024-02-16T06:45:53;12.33;;;4.10;;
84007;SDS011;74070;50.948;6.954;2024-02-16T06:48:20;5.77;;;2.87;;
84007;SDS011;74070;50.948;6.954;2024-02-16T06:50:47;4.40;;;2.90;;
84007;SDS011;74070;50.948;6.954;2024-02-16T06:53:13;4.47;;;2.70;;
84007;SDS011;74070;50.948;6.954;2024-02-16T06:55:40;6.37;;;2.90;;
84007;SDS011;74070;50.948;6.954;2024-02-16T06:58:06;5.27;;;2.63;;
84007;SDS011;74070;50.948;6.954;2024-02-16T07:00:33;4.70;;;2.20;;
84007;SDS011;74070;50.948;6.954;2024-02-16T07:03:00;10.10;;;2.43;;
84007;SDS011;74070;50.948;6.954;2024-02-16T07:05:27;7.63;;;2.57;;
84007;SDS011;74070;50.948;6.954;2024-02-16T07:07:54;4.27;;;2.53;;
84007;SDS011;74070;50.948;6.954;2024-02-16T07:10:21;4.23;;;2.63;;
84007;SDS011;74070;50.948;6.954;2024-02-16T07:12:47;3.87;;;2.47;;
84007;SDS011;74070;50.948;6.954;2024-02-16T07:15:14;5.90;;;3.57;;
84007;SDS011;74070;50.948;6.954;2024-02-16T07:17:41;7.40;;;2.67;;
84007;SDS011;74070;50.948;6.954;2024-02-16T07:20:08;4.77;;;2.47;;
84007;SDS011;74070;50.948;6.954;2024-02-16T07:22:36;7.13;;;2.60;;
84007;SDS011;74070;50.948;6.954;2024-02-16T07:25:02;6.60;;;2.60;;
84007;SDS011;74070;50.948;6.954;2024-02-16T07:27:29;7.13;;;3.27;;
84007;SDS011;74070;50.948;6.954;2024-02-16T07:29:56;5.93;;;2.60;;
84007;SDS011;74070;50.948;6.954;2024-02-16T07:32:22;4.93;;;2.67;;
84007;SDS011;74070;50.948;6.954;2024-02-16T07:34:50;6.10;;;2.50;;
84007;SDS011;74070;50.948;6.954;2024-02-16T07:37:17;5.43;;;2.53;;
84007;SDS011;74070;50.948;6.954;2024-02-16T07:39:45;7.23;;;2.23;;
84007;SDS011;74070;50.948;6.954;2024-02-16T07:42:12;10.30;;;3.13;;
84007;SDS011;74070;50.948;6.954;2024-02-16T07:44:39;4.67;;;3.23;;
84007;SDS011;74070;50.948;6.954;2024-02-16T07:47:05;5.27;;;2.83;;
84007;SDS011;74070;50.948;6.954;2024-02-16T07:49:32;5.93;;;2.50;;
84007;SDS011;74070;50.948;6.954;2024-02-16T07:51:58;6.90;;;2.30;;
84007;SDS011;74070;50.948;6.954;2024-02-16T07:54:25;7.77;;;2.37;;
84007;SDS011;74070;50.948;6.954;2024-02-16T07:56:51;8.23;;;3.13;;
84007;SDS011;74070;50.948;6.954;2024-02-16T07:59:18;8.20;;;2.70;;
84007;SDS011;74070;50.948;6.954;2024-02-16T08:01:45;6.97;;;2.57;;
84007;SDS011;74070;50.948;6.954;2024-02-16T08:04:13;5.63;;;2.70;;
84007;SDS011;74070;50.948;6.954;2024-02-16T08:06:40;4.97;;;2.60;;
84007;SDS011;74070;50.948;6.954;2024-02-16T08:09:07;4.77;;;2.50;;
84007;SDS011;74070;50.948;6.954;2024-02-16T08:11:33;5.90;;;2.37;;
84007;SDS011;74070;50.948;6.954;2024-02-16T08:14:00;7.17;;;2.77;;
84007;SDS011;74070;50.948;6.954;2024-02-16T08:16:27;5.33;;;3.20;;
84007;SDS011;74070;50.948;6.954;2024-02-16T08:18:53;4.17;;;2.60;;
84007;SDS011;74070;50.948;6.954;2024-02-16T08:21:20;6.20;;;2.50;;
84007;SDS011;74070;50.948;6.954;2024-02-16T08:23:46;6.47;;;2.40;;
84007;SDS011;74070;50.948;6.954;2024-02-16T08:26:14;7.60;;;2.80;;
84007;SDS011;74070;50.948;6.954;2024-02-16T08:28:43;5.40;;;2.37;;
84007;SDS011;74070;50.948;6.954;2024-02-16T08:31:08;6.43;;;2.67;;
84007;SDS011;74070;50.948;6.954;2024-02-16T08:33:36;4.33;;;2.70;;
84007;SDS011;74070;50.948;6.954;2024-02-16T08:36:03;5.33;;;2.90;;
84007;SDS011;74070;50.948;6.954;2024-02-16T08:38:29;5.27;;;2.60;;
84007;SDS011;74070;50.948;6.954;2024-02-16T08:40:56;5.27;;;3.00;;
84007;SDS011;74070;50.948;6.954;2024-02-16T08:43:22;6.00;;;2.60;;
84007;SDS011;74070;50.948;6.954;2024-02-16T08:45:49;5.77;;;2.77;;
84007;SDS011;74070;50.948;6.954;2024-02-16T08:48:16;4.77;;;2.93;;
84007;SDS011;74070;50.948;6.954;2024-02-16T08:50:42;8.87;;;3.60;;
84007;SDS011;74070;50.948;6.954;2024-02-16T08:53:09;4.10;;;2.47;;
84007;SDS011;74070;50.948;6.954;2024-02-16T08:55:36;4.87;;;2.73;;
84007;SDS011;74070;50.948;6.954;2024-02-16T08:58:03;5.57;;;2.90;;
84007;SDS011;74070;50.948;6.954;2024-02-16T09:00:30;6.40;;;2.70;;
84007;SDS011;74070;50.948;6.954;2024-02-16T09:02:57;4.77;;;2.50;;
84007;SDS011;74070;50.948;6.954;2024-02-16T09:05:24;5.57;;;3.77;;
84007;SDS011;74070;50.948;6.954;2024-02-16T09:07:51;10.37;;;3.77;;
84007;SDS011;74070;50.948;6.954;2024-02-16T09:10:17;8.63;;;3.10;;
84007;SDS011;74070;50.948;6.954;2024-02-16T09:12:44;5.37;;;3.17;;
84007;SDS011;74070;50.948;6.954;2024-02-16T09:15:11;5.63;;;3.30;;
84007;SDS011;74070;50.948;6.954;2024-02-16T09:17:38;6.27;;;3.77;;
84007;SDS011;74070;50.948;6.954;2024-02-16T09:20:05;9.10;;;3.70;;
84007;SDS011;74070;50.948;6.954;2024-02-16T09:22:33;7.47;;;3.63;;
84007;SDS011;74070;50.948;6.954;2024-02-16T09:25:00;6.67;;;3.30;;
84007;SDS011;74070;50.948;6.954;2024-02-16T09:27:27;7.17;;;3.77;;
84007;SDS011;74070;50.948;6.954;2024-02-16T09:29:53;6.83;;;3.47;;
84007;SDS011;74070;50.948;6.954;2024-02-16T09:32:20;8.07;;;4.30;;
84007;SDS011;74070;50.948;6.954;2024-02-16T09:34:47;7.83;;;3.83;;
84007;SDS011;74070;50.948;6.954;2024-02-16T09:37:13;11.13;;;4.80;;
84007;SDS011;74070;50.948;6.954;2024-02-16T09:39:40;17.63;;;4.70;;
84007;SDS011;74070;50.948;6.954;2024-02-16T09:42:08;6.40;;;4.37;;
84007;SDS011;74070;50.948;6.954;2024-02-16T09:44:35;6.63;;;3.77;;
84007;SDS011;74070;50.948;6.954;2024-02-16T09:47:02;7.33;;;3.67;;
84007;SDS011;74070;50.948;6.954;2024-02-16T09:49:29;5.80;;;2.97;;
84007;SDS011;74070;50.948;6.954;2024-02-16T09:51:55;4.80;;;3.00;;
84007;SDS011;74070;50.948;6.954;2024-02-16T09:54:22;11.47;;;5.13;;
84007;SDS011;74070;50.948;6.954;2024-02-16T09:56:48;8.80;;;4.60;;
84007;SDS011;74070;50.948;6.954;2024-02-16T09:59:16;19.17;;;4.43;;
84007;SDS011;74070;50.948;6.954;2024-02-16T10:01:43;8.43;;;3.07;;
84007;SDS011;74070;50.948;6.954;2024-02-16T10:04:11;10.57;;;3.60;;
84007;SDS011;74070;50.948;6.954;2024-02-16T10:09:21;9.00;;;3.27;;
84007;SDS011;74070;50.948;6.954;2024-02-16T10:11:39;5.40;;;2.90;;
84007;SDS011;74070;50.948;6.954;2024-02-16T10:14:06;8.17;;;3.70;;
84007;SDS011;74070;50.948;6.954;2024-02-16T10:16:33;11.10;;;5.93;;
84007;SDS011;74070;50.948;6.954;2024-02-16T10:19:04;10.83;;;5.40;;
84007;SDS011;74070;50.948;6.954;2024-02-16T10:21:30;19.23;;;6.43;;
84007;SDS011;74070;50.948;6.954;2024-02-16T10:23:59;10.47;;;5.60;;
84007;SDS011;74070;50.948;6.954;2024-02-16T10:26:23;9.00;;;4.13;;
84007;SDS011;74070;50.948;6.954;2024-02-16T10:28:51;11.20;;;4.43;;
84007;SDS011;74070;50.948;6.954;2024-02-16T10:31:18;8.23;;;3.50;;
84007;SDS011;74070;50.948;6.954;2024-02-16T10:33:45;6.43;;;3.60;;
84007;SDS011;74070;50.948;6.954;2024-02-16T10:36:12;6.10;;;3.77;;
84007;SDS011;74070;50.948;6.954;2024-02-16T10:38:39;7.90;;;4.47;;
84007;SDS011;74070;50.948;6.954;2024-02-16T10:41:06;10.00;;;3.73;;
84007;SDS011;74070;50.948;6.954;2024-02-16T10:43:34;8.70;;;3.87;;
84007;SDS011;74070;50.948;6.954;2024-02-16T10:46:01;9.33;;;4.10;;
84007;SDS011;74070;50.948;6.954;2024-02-16T10:48:28;7.47;;;3.40;;
84007;SDS011;74070;50.948;6.954;2024-02-16T10:50:54;8.17;;;4.10;;
84007;SDS011;74070;50.948;6.954;2024-02-16T10:53:23;10.93;;;4.10;;
84007;SDS011;74070;50.948;6.954;2024-02-16T10:55:48;14.80;;;4.90;;
84007;SDS011;74070;50.948;6.954;2024-02-16T10:58:16;10.70;;;4.60;;
84007;SDS011;74070;50.948;6.954;2024-02-16T11:03:16;16.40;;;3.47;;
84007;SDS011;74070;50.948;6.954;2024-02-16T11:05:42;8.27;;;3.80;;
84007;SDS011;74070;50.948;6.954;2024-02-16T11:08:13;6.63;;;4.17;;
84007;SDS011;74070;50.948;6.954;2024-02-16T11:10:38;7.20;;;4.70;;
84007;SDS011;74070;50.948;6.954;2024-02-16T11:13:05;6.60;;;3.97;;
84007;SDS011;74070;50.948;6.954;2024-02-16T11:15:34;11.67;;;3.83;;
84007;SDS011;74070;50.948;6.954;2024-02-16T11:18:01;12.33;;;3.40;;
84007;SDS011;74070;50.948;6.954;2024-02-16T11:20:27;9.90;;;5.20;;
84007;SDS011;74070;50.948;6.954;2024-02-16T11:23:10;7.23;;;3.40;;
84007;SDS011;74070;50.948;6.954;2024-02-16T11:25:36;8.70;;;4.90;;
84007;SDS011;74070;50.948;6.954;2024-02-16T11:28:03;8.27;;;4.30;;
84007;SDS011;74070;50.948;6.954;2024-02-16T11:30:32;8.47;;;4.33;;
84007;SDS011;74070;50.948;6.954;2024-02-16T11:32:58;6.77;;;4.07;;
84007;SDS011;74070;50.948;6.954;2024-02-16T11:35:25;10.30;;;5.70;;
84007;SDS011;74070;50.948;6.954;2024-02-16T11:37:51;6.97;;;4.03;;
84007;SDS011;74070;50.948;6.954;2024-02-16T11:40:18;8.93;;;3.83;;
84007;SDS011;74070;50.948;6.954;2024-02-16T11:42:45;6.80;;;3.60;;
84007;SDS011;74070;50.948;6.954;2024-02-16T11:45:11;5.93;;;4.00;;
84007;SDS011;74070;50.948;6.954;2024-02-16T11:47:38;4.90;;;3.47;;
84007;SDS011;74070;50.948;6.954;2024-02-16T11:50:06;5.97;;;3.23;;
84007;SDS011;74070;50.948;6.954;2024-02-16T11:52:33;8.43;;;3.90;;
84007;SDS011;74070;50.948;6.954;2024-02-16T11:55:00;10.30;;;4.23;;
84007;SDS011;74070;50.948;6.954;2024-02-16T11:57:26;7.83;;;3.50;;
84007;SDS011;74070;50.948;6.954;2024-02-16T11:59:53;8.63;;;4.07;;
84007;SDS011;74070;50.948;6.954;2024-02-16T12:02:20;9.43;;;4.03;;
84007;SDS011;74070;50.948;6.954;2024-02-16T12:04:47;5.63;;;3.53;;
84007;SDS011;74070;50.948;6.954;2024-02-16T12:07:14;8.77;;;4.30;;
84007;SDS011;74070;50.948;6.954;2024-02-16T12:09:40;9.50;;;3.70;;
84007;SDS011;74070;50.948;6.954;2024-02-16T12:12:07;9.90;;;4.80;;
84007;SDS011;74070;50.948;6.954;2024-02-16T12:14:34;9.37;;;4.17;;
84007;SDS011;74070;50.948;6.954;2024-02-16T12:17:02;13.03;;;4.63;;
84007;SDS011;74070;50.948;6.954;2024-02-16T12:19:28;11.27;;;4.57;;
84007;SDS011;74070;50.948;6.954;2024-02-16T12:21:55;12.00;;;5.70;;
84007;SDS011;74070;50.948;6.954;2024-02-16T12:24:22;12.70;;;4.60;;
84007;SDS011;74070;50.948;6.954;2024-02-16T12:26:49;11.30;;;7.00;;
84007;SDS011;74070;50.948;6.954;2024-02-16T12:29:16;13.00;;;4.80;;
84007;SDS011;74070;50.948;6.954;2024-02-16T12:31:43;11.23;;;5.93;;
84007;SDS011;74070;50.948;6.954;2024-02-16T12:34:10;13.00;;;4.40;;
84007;SDS011;74070;50.948;6.954;2024-02-16T12:36:39;9.83;;;7.00;;
84007;SDS011;74070;50.948;6.954;2024-02-16T12:39:05;9.70;;;3.77;;
84007;SDS011;74070;50.948;6.954;2024-02-16T12:41:32;10.07;;;4.80;;
84007;SDS011;74070;50.948;6.954;2024-02-16T12:43:58;9.97;;;4.17;;
84007;SDS011;74070;50.948;6.954;2024-02-16T12:46:25;9.93;;;4.23;;
84007;SDS011;74070;50.948;6.954;2024-02-16T12:48:52;6.53;;;3.30;;
84007;SDS011;74070;50.948;6.954;2024-02-16T12:51:18;9.03;;;4.30;;
84007;SDS011;74070;50.948;6.954;2024-02-16T12:53:45;11.70;;;4.37;;
84007;SDS011;74070;50.948;6.954;2024-02-16T12:56:11;8.67;;;3.90;;
84007;SDS011;74070;50.948;6.954;2024-02-16T12:58:39;11.00;;;4.07;;
84007;SDS011;74070;50.948;6.954;2024-02-16T13:01:06;8.80;;;3.83;;
84007;SDS011;74070;50.948;6.954;2024-02-16T13:03:34;12.50;;;4.20;;
84007;SDS011;74070;50.948;6.954;2024-02-16T13:06:01;8.93;;;4.50;;
84007;SDS011;74070;50.948;6.954;2024-02-16T13:08:27;10.27;;;5.50;;
84007;SDS011;74070;50.948;6.954;2024-02-16T13:10:54;8.40;;;4.20;;
84007;SDS011;74070;50.948;6.954;2024-02-16T13:13:21;8.77;;;4.53;;
84007;SDS011;74070;50.948;6.954;2024-02-16T13:15:48;17.33;;;5.60;;
84007;SDS011;74070;50.948;6.954;2024-02-16T13:18:15;7.93;;;4.70;;
84007;SDS011;74070;50.948;6.954;2024-02-16T13:20:41;9.00;;;4.93;;
84007;SDS011;74070;50.948;6.954;2024-02-16T13:23:09;8.70;;;4.30;;
84007;SDS011;74070;50.948;6.954;2024-02-16T13:25:35;8.93;;;5.07;;
84007;SDS011;74070;50.948;6.954;2024-02-16T13:28:02;12.00;;;4.70;;
84007;SDS011;74070;50.948;6.954;2024-02-16T13:30:28;10.63;;;5.50;;
84007;SDS011;74070;50.948;6.954;2024-02-16T13:32:55;8.43;;;4.53;;
84007;SDS011;74070;50.948;6.954;2024-02-16T13:35:22;9.67;;;5.33;;
84007;SDS011;74070;50.948;6.954;2024-02-16T13:37:49;8.40;;;4.77;;
84007;SDS011;74070;50.948;6.954;2024-02-16T13:40:16;8.43;;;4.60;;
84007;SDS011;74070;50.948;6.954;2024-02-16T13:42:42;13.87;;;4.70;;
84007;SDS011;74070;50.948;6.954;2024-02-16T13:45:09;9.63;;;4.50;;
84007;SDS011;74070;50.948;6.954;2024-02-16T13:47:36;13.07;;;5.30;;
84007;SDS011;74070;50.948;6.954;2024-02-16T13:50:03;9.50;;;4.90;;
84007;SDS011;74070;50.948;6.954;2024-02-16T13:52:30;8.40;;;4.83;;
84007;SDS011;74070;50.948;6.954;2024-02-16T13:54:56;10.70;;;5.03;;
84007;SDS011;74070;50.948;6.954;2024-02-16T13:57:24;9.23;;;4.87;;
84007;SDS011;74070;50.948;6.954;2024-02-16T13:59:50;16.27;;;5.10;;
84007;SDS011;74070;50.948;6.954;2024-02-16T14:02:17;7.87;;;5.00;;
84007;SDS011;74070;50.948;6.954;2024-02-16T14:04:43;7.90;;;5.23;;
84007;SDS011;74070;50.948;6.954;2024-02-16T14:07:10;6.87;;;4.93;;
84007;SDS011;74070;50.948;6.954;2024-02-16T14:09:37;14.03;;;6.03;;
84007;SDS011;74070;50.948;6.954;2024-02-16T14:12:03;6.87;;;4.50;;
84007;SDS011;74070;50.948;6.954;2024-02-16T14:14:30;12.23;;;5.07;;
84007;SDS011;74070;50.948;6.954;2024-02-16T14:16:57;12.60;;;4.60;;
84007;SDS011;74070;50.948;6.954;2024-02-16T14:19:23;8.30;;;4.30;;
84007;SDS011;74070;50.948;6.954;2024-02-16T14:21:50;8.43;;;4.00;;
84007;SDS011;74070;50.948;6.954;2024-02-16T14:24:16;9.90;;;4.47;;
84007;SDS011;74070;50.948;6.954;2024-02-16T14:26:43;8.50;;;4.20;;
84007;SDS011;74070;50.948;6.954;2024-02-16T14:29:10;8.10;;;4.40;;
84007;SDS011;74070;50.948;6.954;2024-02-16T14:31:37;10.37;;;4.60;;
84007;SDS011;74070;50.948;6.954;2024-02-16T14:34:04;12.87;;;5.80;;
84007;SDS011;74070;50.948;6.954;2024-02-16T14:36:32;11.33;;;5.70;;
84007;SDS011;74070;50.948;6.954;2024-02-16T14:38:58;10.57;;;4.67;;
84007;SDS011;74070;50.948;6.954;2024-02-16T14:41:25;8.73;;;4.53;;
84007;SDS011;74070;50.948;6.954;2024-02-16T14:43:51;9.97;;;5.40;;
84007;SDS011;74070;50.948;6.954;2024-02-16T14:46:18;10.27;;;4.83;;
84007;SDS011;74070;50.948;6.954;2024-02-16T14:48:45;8.13;;;5.33;;